Terminal Aerodrome Forecast
Issued by NWS

Home | Current Version | Previous Version | Text Only | Print | Product List | Glossary On
Versions: 1 2 3 4 5 6 7 8 9 10 11 12 13 14 15 16 17 18 19 20 21
000
FTUS43 KAPX 050208 AAA
TAFMBL
TAF AMD
KMBL 050208Z 0502/0524 00000KT 2SM BR BKN060
     FM050700 00000KT 1/2SM FG VV002
     FM051330 VRB03KT P6SM BKN015
     FM051800 27006KT P6SM SCT035
      AMD LTD TO CLD VIS AND WIND=

USA.gov is the U.S. government's official web portal to all federal, state and local government web resources and services.